createdAt,value
2022-12-16T00:00:30.556Z,77.90
2022-12-16T00:02:32.739Z,77.80
2022-12-16T00:04:34.786Z,77.45
2022-12-16T00:06:36.831Z,77.28
2022-12-16T00:08:40.007Z,77.11
2022-12-16T00:11:02.171Z,77.16
2022-12-16T00:13:08.924Z,77.51
2022-12-16T00:15:12.543Z,77.03
2022-12-16T00:17:14.511Z,77.90
2022-12-16T00:19:16.426Z,77.90
2022-12-16T00:21:21.417Z,78.13
2022-12-16T00:23:23.589Z,77.56
2022-12-16T00:25:26.488Z,77.73
2022-12-16T00:27:31.634Z,77.15
2022-12-16T00:29:33.572Z,77.28
2022-12-16T00:31:35.591Z,77.22
2022-12-16T00:33:37.650Z,77.84
2022-12-16T00:35:44.407Z,77.33
2022-12-16T00:37:48.035Z,77.83
2022-12-16T00:39:49.939Z,78.12
2022-12-16T00:41:52.138Z,77.24
2022-12-16T00:43:55.075Z,77.43
2022-12-16T00:45:57.073Z,77.96
2022-12-16T00:47:59.291Z,76.97
2022-12-16T00:50:01.376Z,77.47
2022-12-16T00:52:03.278Z,77.86
2022-12-16T00:54:05.254Z,77.35
2022-12-16T00:56:10.656Z,78.26
2022-12-16T00:58:17.962Z,77.82
2022-12-16T01:00:20.506Z,77.85
2022-12-16T01:02:22.473Z,77.74
2022-12-16T01:04:26.900Z,78.36
2022-12-16T01:06:28.925Z,78.27
2022-12-16T01:08:30.829Z,77.88
2022-12-16T01:10:32.745Z,78.22
2022-12-16T01:12:35.663Z,78.19
2022-12-16T01:14:37.495Z,77.79
2022-12-16T01:16:39.435Z,77.59
2022-12-16T01:18:41.351Z,77.21
2022-12-16T01:20:43.539Z,77.81
2022-12-16T01:22:45.590Z,77.74
2022-12-16T01:24:47.901Z,77.47
2022-12-16T01:26:49.800Z,77.09
2022-12-16T01:28:52.451Z,77.53
2022-12-16T01:31:01.950Z,77.12
2022-12-16T01:33:04.057Z,77.06
2022-12-16T01:35:17.980Z,77.13
2022-12-16T01:37:28.456Z,77.03
2022-12-16T01:39:30.558Z,76.83
2022-12-16T01:41:33.366Z,76.50
2022-12-16T01:43:37.785Z,76.39
2022-12-16T01:45:39.885Z,77.04
2022-12-16T01:47:42.143Z,77.20
2022-12-16T01:50:06.346Z,76.63
2022-12-16T01:52:13.412Z,76.91
2022-12-16T01:54:26.448Z,77.08
2022-12-16T01:56:31.987Z,77.05
2022-12-16T01:58:38.053Z,76.47
2022-12-16T02:00:41.316Z,76.82
2022-12-16T02:02:46.303Z,76.53
2022-12-16T02:05:07.146Z,76.58
2022-12-16T02:07:08.985Z,76.37
2022-12-16T02:09:13.246Z,75.95
2022-12-16T02:11:17.830Z,75.34
2022-12-16T02:13:23.738Z,75.78
2022-12-16T02:15:32.022Z,76.01
2022-12-16T02:17:41.396Z,75.54
2022-12-16T02:20:08.244Z,75.83
2022-12-16T02:22:52.850Z,75.55
2022-12-16T02:25:16.435Z,76.12
2022-12-16T02:27:40.403Z,76.33
2022-12-16T02:29:54.409Z,75.62
2022-12-16T02:32:21.472Z,75.89
2022-12-16T02:34:55.137Z,75.90
2022-12-16T02:37:13.623Z,75.58
2022-12-16T02:39:22.552Z,75.67
2022-12-16T02:41:39.760Z,75.68
2022-12-16T02:44:02.529Z,75.97
2022-12-16T02:46:07.424Z,76.05
2022-12-16T02:48:10.378Z,75.93
2022-12-16T02:50:21.699Z,76.24
2022-12-16T02:52:29.849Z,76.38
2022-12-16T02:54:31.894Z,76.05
2022-12-16T02:56:50.026Z,75.61
2022-12-16T02:58:56.214Z,75.73
2022-12-16T03:01:12.563Z,75.50
2022-12-16T03:03:27.889Z,75.33
2022-12-16T03:05:41.135Z,75.53
2022-12-16T03:07:45.284Z,75.30
2022-12-16T03:09:48.538Z,75.52
2022-12-16T03:11:53.323Z,75.31
2022-12-16T03:13:58.260Z,75.62
2022-12-16T03:16:01.685Z,75.52
2022-12-16T03:18:07.891Z,75.70
2022-12-16T03:20:25.152Z,75.61
2022-12-16T03:22:33.102Z,75.62
2022-12-16T03:24:36.334Z,75.92
2022-12-16T03:26:45.002Z,75.10
2022-12-16T03:28:58.617Z,74.87
2022-12-16T03:31:41.781Z,75.69
2022-12-16T03:34:10.943Z,75.81
2022-12-16T03:36:22.426Z,75.41
2022-12-16T03:38:26.834Z,75.63
2022-12-16T03:40:29.342Z,75.09
2022-12-16T03:42:31.533Z,76.08
2022-12-16T03:44:36.106Z,75.36
2022-12-16T03:46:38.186Z,75.46
2022-12-16T03:48:47.049Z,75.92
2022-12-16T03:50:49.009Z,75.67
2022-12-16T03:52:50.949Z,75.90
2022-12-16T03:54:53.867Z,75.21
2022-12-16T03:56:55.770Z,75.38
2022-12-16T03:58:57.630Z,75.52
2022-12-16T04:01:00.591Z,74.86
2022-12-16T04:03:02.706Z,75.76
2022-12-16T04:05:04.995Z,74.72
2022-12-16T04:07:22.114Z,74.92
2022-12-16T04:09:24.048Z,75.65
2022-12-16T04:11:44.562Z,75.49
2022-12-16T04:14:04.854Z,74.95
2022-12-16T04:16:33.008Z,75.18
2022-12-16T04:18:54.157Z,75.16
2022-12-16T04:21:15.691Z,74.78
2022-12-16T04:23:37.246Z,75.38
2022-12-16T04:25:39.138Z,75.25
2022-12-16T04:27:47.148Z,74.93
2022-12-16T04:30:15.164Z,75.23
2022-12-16T04:32:17.326Z,75.05
2022-12-16T04:34:26.378Z,75.05
2022-12-16T04:36:46.693Z,75.01
2022-12-16T04:39:07.127Z,75.20
2022-12-16T04:41:27.718Z,74.56
2022-12-16T04:43:52.684Z,75.33
2022-12-16T04:46:13.273Z,74.78
2022-12-16T04:48:33.859Z,74.84
2022-12-16T04:50:54.069Z,74.40
2022-12-16T04:53:14.753Z,74.15
2022-12-16T04:55:35.481Z,74.62
2022-12-16T04:57:56.117Z,74.50
2022-12-16T05:00:16.820Z,74.34
2022-12-16T05:02:38.303Z,74.28
2022-12-16T05:04:58.570Z,74.16
2022-12-16T05:07:19.276Z,74.32
2022-12-16T05:09:39.963Z,74.64
2022-12-16T05:12:00.526Z,74.90
2022-12-16T05:14:21.129Z,74.69
2022-12-16T05:16:41.425Z,73.96
2022-12-16T05:19:01.971Z,74.54
2022-12-16T05:21:22.563Z,74.34
2022-12-16T05:23:43.104Z,74.25
2022-12-16T05:26:03.694Z,74.11
2022-12-16T05:28:24.738Z,74.25
2022-12-16T05:30:45.276Z,74.47
2022-12-16T05:33:07.810Z,74.16
2022-12-16T05:35:28.935Z,74.81
2022-12-16T05:37:49.418Z,74.93
2022-12-16T05:40:09.992Z,74.37
2022-12-16T05:42:30.263Z,74.28
2022-12-16T05:44:50.648Z,74.21
2022-12-16T05:47:11.368Z,74.25
2022-12-16T05:49:31.642Z,73.95
2022-12-16T05:51:52.265Z,74.22
2022-12-16T05:54:12.592Z,74.34
2022-12-16T05:56:32.875Z,74.86
2022-12-16T05:58:53.423Z,75.11
2022-12-16T06:01:14.046Z,75.54
2022-12-16T06:03:34.969Z,74.98
2022-12-16T06:05:55.482Z,75.45
2022-12-16T06:08:15.766Z,75.70
2022-12-16T06:10:36.222Z,75.22
2022-12-16T06:12:56.819Z,75.64
2022-12-16T06:15:17.380Z,75.21
2022-12-16T06:17:40.798Z,74.80
2022-12-16T06:20:01.114Z,75.02
2022-12-16T06:22:21.425Z,75.46
2022-12-16T06:24:42.091Z,75.30
2022-12-16T06:27:02.657Z,76.04
2022-12-16T06:29:23.298Z,75.14
2022-12-16T06:31:43.659Z,75.20
2022-12-16T06:34:04.203Z,74.88
2022-12-16T06:36:25.240Z,75.21
2022-12-16T06:38:45.680Z,75.24
2022-12-16T06:41:06.371Z,74.83
2022-12-16T06:43:26.638Z,74.58
2022-12-16T06:45:47.003Z,74.98
2022-12-16T06:48:07.552Z,74.86
2022-12-16T06:50:28.053Z,74.85
2022-12-16T06:52:48.476Z,74.73
2022-12-16T06:55:08.759Z,74.49
2022-12-16T06:57:29.092Z,74.81
2022-12-16T06:59:49.700Z,74.39
2022-12-16T07:02:10.612Z,74.42
2022-12-16T07:04:31.381Z,74.66
2022-12-16T07:06:51.838Z,73.95
2022-12-16T07:09:12.147Z,73.86
2022-12-16T07:11:32.430Z,74.88
2022-12-16T07:13:53.086Z,74.54
2022-12-16T07:16:14.833Z,75.06
2022-12-16T07:18:35.254Z,75.26
2022-12-16T07:20:55.527Z,74.25
2022-12-16T07:23:19.557Z,74.80
2022-12-16T07:25:40.398Z,74.34
2022-12-16T07:28:05.175Z,74.91
2022-12-16T07:30:29.891Z,74.86
2022-12-16T07:32:51.422Z,75.34
2022-12-16T07:35:12.086Z,75.27
2022-12-16T07:37:32.479Z,75.31
2022-12-16T07:39:55.171Z,74.19
2022-12-16T07:42:16.052Z,74.72
2022-12-16T07:44:37.734Z,75.07
2022-12-16T07:46:58.373Z,75.58
2022-12-16T07:49:19.603Z,75.31
2022-12-16T07:51:56.775Z,75.09
2022-12-16T07:54:17.207Z,74.90
2022-12-16T07:56:37.887Z,74.96
2022-12-16T07:58:58.502Z,75.35
2022-12-16T08:01:19.611Z,75.17
2022-12-16T08:03:40.089Z,75.80
2022-12-16T08:06:00.380Z,75.75
2022-12-16T08:08:20.595Z,75.79
2022-12-16T08:10:41.202Z,75.85
2022-12-16T08:13:01.906Z,75.72
2022-12-16T08:15:22.367Z,75.33
2022-12-16T08:17:42.810Z,76.46
2022-12-16T08:20:03.062Z,76.47
2022-12-16T08:22:23.401Z,76.35
2022-12-16T08:24:49.689Z,76.49
2022-12-16T08:27:13.762Z,76.09
2022-12-16T08:29:44.114Z,75.81
2022-12-16T08:32:05.265Z,76.00
2022-12-16T08:34:25.853Z,76.52
2022-12-16T08:37:03.019Z,76.43
2022-12-16T08:39:23.832Z,77.16
2022-12-16T08:41:44.501Z,76.44
2022-12-16T08:44:05.074Z,77.12
2022-12-16T08:46:25.739Z,77.05
2022-12-16T08:48:46.712Z,77.13
2022-12-16T08:51:07.271Z,77.00
2022-12-16T08:53:28.117Z,76.65
2022-12-16T08:55:48.856Z,76.91
2022-12-16T08:58:15.270Z,76.74
2022-12-16T09:00:35.957Z,76.46
2022-12-16T09:02:57.915Z,76.76
2022-12-16T09:05:18.336Z,76.64
2022-12-16T09:07:39.163Z,76.44
2022-12-16T09:09:59.490Z,76.66
2022-12-16T09:12:20.091Z,76.59
2022-12-16T09:14:41.795Z,76.78
2022-12-16T09:17:02.357Z,77.15
2022-12-16T09:19:23.076Z,76.65
2022-12-16T09:21:48.464Z,77.13
2022-12-16T09:24:08.721Z,77.46
2022-12-16T09:26:29.340Z,77.22
2022-12-16T09:28:50.950Z,77.23
2022-12-16T09:31:11.509Z,77.10
2022-12-16T09:33:32.719Z,77.04
2022-12-16T09:35:54.379Z,76.58
2022-12-16T09:38:16.080Z,77.03
2022-12-16T09:40:37.439Z,77.00
2022-12-16T09:43:15.406Z,76.66
2022-12-16T09:45:51.286Z,76.50
2022-12-16T09:48:39.708Z,76.82
2022-12-16T09:51:02.706Z,76.84
2022-12-16T09:53:26.357Z,76.64
2022-12-16T09:55:59.312Z,76.99
2022-12-16T09:58:20.755Z,77.58
2022-12-16T10:00:46.366Z,77.02
2022-12-16T10:03:10.199Z,77.76
2022-12-16T10:05:33.553Z,77.15
2022-12-16T10:07:59.411Z,77.31
2022-12-16T10:10:36.239Z,77.31
2022-12-16T10:13:05.167Z,77.17
2022-12-16T10:15:48.780Z,76.94
2022-12-16T10:18:09.323Z,76.64
2022-12-16T10:20:47.973Z,77.10
2022-12-16T10:23:23.431Z,76.72
2022-12-16T10:26:08.889Z,77.07
2022-12-16T10:28:43.488Z,76.80
2022-12-16T10:31:03.845Z,76.86
2022-12-16T10:33:29.365Z,77.38
2022-12-16T10:35:55.592Z,77.35
2022-12-16T10:38:16.176Z,77.10
2022-12-16T10:40:41.695Z,77.36
2022-12-16T10:43:15.779Z,77.64
2022-12-16T10:45:48.068Z,77.12
2022-12-16T10:48:09.255Z,77.29
2022-12-16T10:50:33.698Z,77.59
2022-12-16T10:52:54.284Z,77.18
2022-12-16T10:55:52.383Z,77.42
2022-12-16T10:58:41.844Z,77.31
2022-12-16T11:01:06.657Z,76.78
2022-12-16T11:03:42.434Z,77.22
2022-12-16T11:06:03.119Z,77.08
2022-12-16T11:08:24.124Z,77.06
2022-12-16T11:10:44.598Z,77.21
2022-12-16T11:13:17.297Z,76.81
2022-12-16T11:15:44.516Z,76.70
2022-12-16T11:18:24.119Z,77.11
2022-12-16T11:20:44.976Z,76.71
2022-12-16T11:23:05.477Z,76.94
2022-12-16T11:25:31.582Z,76.89
2022-12-16T11:27:52.338Z,76.48
2022-12-16T11:30:16.309Z,76.57
2022-12-16T11:32:41.790Z,76.90
2022-12-16T11:35:06.527Z,76.98
2022-12-16T11:37:30.044Z,76.87
2022-12-16T11:39:53.939Z,76.73
2022-12-16T11:42:15.303Z,76.51
2022-12-16T11:44:40.303Z,76.86
2022-12-16T11:47:02.071Z,76.49
2022-12-16T11:49:31.383Z,76.74
2022-12-16T11:52:08.254Z,76.87
2022-12-16T11:54:49.079Z,76.98
2022-12-16T11:57:09.749Z,77.14
2022-12-16T11:59:51.565Z,76.84
2022-12-16T12:02:20.074Z,76.52
2022-12-16T12:04:40.731Z,76.60
2022-12-16T12:07:26.203Z,76.28
2022-12-16T12:09:47.330Z,76.98
2022-12-16T12:12:22.064Z,76.52
2022-12-16T12:14:42.684Z,76.84
2022-12-16T12:17:23.684Z,76.52
2022-12-16T12:20:23.199Z,76.30
2022-12-16T12:22:58.008Z,77.10
2022-12-16T12:25:39.823Z,76.90
2022-12-16T12:28:14.043Z,77.32
2022-12-16T12:30:39.292Z,76.71
2022-12-16T12:33:11.875Z,76.29
2022-12-16T12:35:41.268Z,76.56
2022-12-16T12:38:43.898Z,76.36
2022-12-16T12:41:13.372Z,76.71
2022-12-16T12:43:55.225Z,76.85
2022-12-16T12:46:37.513Z,77.23
2022-12-16T12:49:23.614Z,77.27
2022-12-16T12:51:59.276Z,77.18
2022-12-16T12:54:40.744Z,78.01
2022-12-16T12:57:05.648Z,77.95
2022-12-16T12:59:37.724Z,78.16
2022-12-16T13:02:02.005Z,79.05
2022-12-16T13:04:31.526Z,78.60
2022-12-16T13:06:55.993Z,78.57
2022-12-16T13:09:17.974Z,78.49
2022-12-16T13:11:39.665Z,79.01
2022-12-16T13:14:02.066Z,78.66
2022-12-16T13:16:28.165Z,78.45
2022-12-16T13:18:52.647Z,78.38
2022-12-16T13:21:17.051Z,78.40
2022-12-16T13:23:57.393Z,78.17
2022-12-16T13:26:24.430Z,78.67
2022-12-16T13:28:57.896Z,78.89
2022-12-16T13:31:25.692Z,78.18
2022-12-16T13:33:49.331Z,78.57
2022-12-16T13:36:15.553Z,78.66
2022-12-16T13:38:40.580Z,78.01
2022-12-16T13:41:23.663Z,78.02
2022-12-16T13:44:08.131Z,78.18
2022-12-16T13:46:34.116Z,78.43
2022-12-16T13:48:59.692Z,78.09
2022-12-16T13:51:20.260Z,78.49
2022-12-16T13:53:47.174Z,78.36
2022-12-16T13:56:10.628Z,77.66
2022-12-16T13:58:57.093Z,78.03
2022-12-16T14:01:25.516Z,77.77
2022-12-16T14:04:07.734Z,77.70
2022-12-16T14:06:50.351Z,77.73
2022-12-16T14:09:10.742Z,77.95
2022-12-16T14:12:01.428Z,77.78
2022-12-16T14:14:28.086Z,77.82
2022-12-16T14:17:20.131Z,77.37
2022-12-16T14:20:02.197Z,78.08
2022-12-16T14:22:34.980Z,77.24
2022-12-16T14:24:57.785Z,77.66
2022-12-16T14:27:24.709Z,77.88
2022-12-16T14:29:51.226Z,77.61
2022-12-16T14:32:11.915Z,77.10
2022-12-16T14:34:36.259Z,77.39
2022-12-16T14:36:58.878Z,77.33
2022-12-16T14:39:19.382Z,77.16
2022-12-16T14:41:43.953Z,77.20
2022-12-16T14:44:04.071Z,77.47
2022-12-16T14:46:25.709Z,76.88
2022-12-16T14:48:50.602Z,76.69
2022-12-16T14:51:11.010Z,77.04
2022-12-16T14:53:38.479Z,77.11
2022-12-16T14:55:59.290Z,77.51
2022-12-16T14:58:32.106Z,77.32
2022-12-16T15:00:54.549Z,77.08
2022-12-16T15:03:21.787Z,77.20
2022-12-16T15:05:50.219Z,77.19
2022-12-16T15:08:11.031Z,77.23
2022-12-16T15:10:33.787Z,77.10
2022-12-16T15:12:58.301Z,77.47
2022-12-16T15:15:22.137Z,77.00
2022-12-16T15:17:46.968Z,76.74
2022-12-16T15:20:12.222Z,77.40
2022-12-16T15:22:36.151Z,77.02
2022-12-16T15:24:57.829Z,77.51
2022-12-16T15:27:43.813Z,77.08
2022-12-16T15:30:04.469Z,77.19
2022-12-16T15:32:52.439Z,76.88
2022-12-16T15:35:12.719Z,77.15
2022-12-16T15:38:03.635Z,77.65
2022-12-16T15:40:39.385Z,77.64
2022-12-16T15:43:01.384Z,77.54
2022-12-16T15:45:22.881Z,77.51
2022-12-16T15:47:57.053Z,77.76
2022-12-16T15:50:21.898Z,77.37
2022-12-16T15:52:54.875Z,77.68
2022-12-16T15:55:15.287Z,77.11
2022-12-16T15:57:53.605Z,76.95
2022-12-16T16:00:18.569Z,77.10
2022-12-16T16:02:44.147Z,77.48
2022-12-16T16:05:12.356Z,77.14
2022-12-16T16:07:43.340Z,77.37
2022-12-16T16:10:04.156Z,76.97
2022-12-16T16:12:24.550Z,77.70
2022-12-16T16:14:45.093Z,77.38
2022-12-16T16:17:13.139Z,77.26
2022-12-16T16:19:43.147Z,76.83
2022-12-16T16:22:04.994Z,76.38
2022-12-16T16:24:25.773Z,76.18
2022-12-16T16:26:46.527Z,76.55
2022-12-16T16:29:07.054Z,75.90
2022-12-16T16:31:29.285Z,75.92
2022-12-16T16:33:49.976Z,75.45
2022-12-16T16:36:10.272Z,75.30
2022-12-16T16:38:31.205Z,75.74
2022-12-16T16:40:56.987Z,75.38
2022-12-16T16:43:17.654Z,75.52
2022-12-16T16:45:38.289Z,75.05
2022-12-16T16:47:59.022Z,75.28
2022-12-16T16:50:19.713Z,75.25
2022-12-16T16:52:42.350Z,74.87
2022-12-16T16:55:02.925Z,75.16
2022-12-16T16:57:23.693Z,75.39
2022-12-16T16:59:44.456Z,75.22
2022-12-16T17:02:05.226Z,75.14
2022-12-16T17:04:26.102Z,74.72
2022-12-16T17:06:46.917Z,75.04
2022-12-16T17:09:09.377Z,75.24
2022-12-16T17:11:37.701Z,74.90
2022-12-16T17:14:09.036Z,74.82
2022-12-16T17:16:30.927Z,74.82
2022-12-16T17:18:52.657Z,75.24
2022-12-16T17:21:13.614Z,75.61
2022-12-16T17:23:34.205Z,75.32
2022-12-16T17:25:54.906Z,75.36
2022-12-16T17:28:17.247Z,75.61
2022-12-16T17:30:47.032Z,75.16
2022-12-16T17:33:09.119Z,75.14
2022-12-16T17:35:41.337Z,75.71
2022-12-16T17:38:02.345Z,75.73
2022-12-16T17:40:23.275Z,75.41
2022-12-16T17:42:48.153Z,75.19
2022-12-16T17:45:08.495Z,75.29
2022-12-16T17:47:29.121Z,75.33
2022-12-16T17:49:49.782Z,75.30
2022-12-16T17:52:10.577Z,75.02
2022-12-16T17:54:30.830Z,75.44
2022-12-16T17:56:51.131Z,74.90
2022-12-16T17:59:11.705Z,75.04
2022-12-16T18:01:33.857Z,75.28
2022-12-16T18:03:54.727Z,75.17
2022-12-16T18:06:16.242Z,75.00
2022-12-16T18:08:36.603Z,74.85
2022-12-16T18:10:57.258Z,74.88
2022-12-16T18:13:18.607Z,74.90
2022-12-16T18:15:39.330Z,75.18
2022-12-16T18:18:00.087Z,74.80
2022-12-16T18:20:21.426Z,74.62
2022-12-16T18:22:42.472Z,75.13
2022-12-16T18:25:03.113Z,74.99
2022-12-16T18:27:24.226Z,74.56
2022-12-16T18:29:47.474Z,74.94
2022-12-16T18:32:09.533Z,74.99
2022-12-16T18:34:31.452Z,74.67
2022-12-16T18:36:51.905Z,75.26
2022-12-16T18:39:12.656Z,74.71
2022-12-16T18:41:35.814Z,74.57
2022-12-16T18:43:57.739Z,74.62
2022-12-16T18:46:19.157Z,74.60
2022-12-16T18:48:40.136Z,75.04
2022-12-16T18:51:00.744Z,75.07
2022-12-16T18:53:23.982Z,75.02
2022-12-16T18:55:46.594Z,74.91
2022-12-16T18:58:34.704Z,74.54
2022-12-16T19:00:52.257Z,74.68
2022-12-16T19:03:13.363Z,74.60
2022-12-16T19:05:34.107Z,74.63
2022-12-16T19:07:55.768Z,74.17
2022-12-16T19:10:16.479Z,74.74
2022-12-16T19:12:39.083Z,74.44
2022-12-16T19:15:02.394Z,74.29
2022-12-16T19:17:23.282Z,74.97
2022-12-16T19:19:45.459Z,74.68
2022-12-16T19:22:06.477Z,74.91
2022-12-16T19:24:27.558Z,74.67
2022-12-16T19:26:48.942Z,74.54
2022-12-16T19:29:09.417Z,74.91
2022-12-16T19:31:32.805Z,74.62
2022-12-16T19:33:54.667Z,74.45
2022-12-16T19:36:17.162Z,74.43
2022-12-16T19:38:38.004Z,74.02
2022-12-16T19:40:58.383Z,74.72
2022-12-16T19:43:19.070Z,74.37
2022-12-16T19:45:39.570Z,74.48
2022-12-16T19:48:00.588Z,74.63
2022-12-16T19:50:24.937Z,74.50
2022-12-16T19:52:49.915Z,74.48
2022-12-16T19:55:17.424Z,74.46
2022-12-16T19:57:38.803Z,74.24
2022-12-16T19:59:59.401Z,74.21
2022-12-16T20:02:20.606Z,74.60
2022-12-16T20:04:42.012Z,74.59
2022-12-16T20:07:02.786Z,74.45
2022-12-16T20:09:24.140Z,74.57
2022-12-16T20:11:44.907Z,74.05
2022-12-16T20:14:05.803Z,74.18
2022-12-16T20:16:29.300Z,74.58
2022-12-16T20:18:54.897Z,74.63
2022-12-16T20:21:24.280Z,73.88
2022-12-16T20:23:44.827Z,74.39
2022-12-16T20:26:16.594Z,73.94
2022-12-16T20:28:37.377Z,74.61
2022-12-16T20:30:57.826Z,74.55
2022-12-16T20:33:18.492Z,74.69
2022-12-16T20:35:39.167Z,74.63
2022-12-16T20:38:05.775Z,75.15
2022-12-16T20:40:27.159Z,74.39
2022-12-16T20:42:48.873Z,74.77
2022-12-16T20:45:10.211Z,74.76
2022-12-16T20:47:31.004Z,74.59
2022-12-16T20:49:51.967Z,75.32
2022-12-16T20:52:13.719Z,75.95
2022-12-16T20:54:34.588Z,75.89
2022-12-16T20:56:55.642Z,76.23
2022-12-16T20:59:17.338Z,76.50
2022-12-16T21:01:47.941Z,76.13
2022-12-16T21:04:16.781Z,76.14
2022-12-16T21:06:48.789Z,76.79
2022-12-16T21:09:10.177Z,76.45
2022-12-16T21:11:31.347Z,76.43
2022-12-16T21:13:52.048Z,76.43
2022-12-16T21:16:12.887Z,76.70
2022-12-16T21:18:33.261Z,76.30
2022-12-16T21:20:56.656Z,76.75
2022-12-16T21:23:21.740Z,75.99
2022-12-16T21:25:44.892Z,76.59
2022-12-16T21:28:06.611Z,76.23
2022-12-16T21:30:27.877Z,75.87
2022-12-16T21:32:48.829Z,76.35
2022-12-16T21:35:09.675Z,76.45
2022-12-16T21:37:32.479Z,76.51
2022-12-16T21:39:53.181Z,77.12
2022-12-16T21:42:15.445Z,76.83
2022-12-16T21:44:35.979Z,76.79
2022-12-16T21:46:56.630Z,77.18
2022-12-16T21:49:17.363Z,77.13
2022-12-16T21:51:39.073Z,77.19
2022-12-16T21:54:04.801Z,76.20
2022-12-16T21:56:29.148Z,77.07
2022-12-16T21:58:49.695Z,76.53
2022-12-16T22:01:15.156Z,77.35
2022-12-16T22:03:36.067Z,76.29
2022-12-16T22:05:56.990Z,76.48
2022-12-16T22:08:17.787Z,76.70
2022-12-16T22:10:38.375Z,76.52
2022-12-16T22:12:59.083Z,76.46
2022-12-16T22:15:19.538Z,76.59
2022-12-16T22:17:40.057Z,76.26
2022-12-16T22:20:00.760Z,76.17
2022-12-16T22:22:21.346Z,76.33
2022-12-16T22:24:41.947Z,77.03
2022-12-16T22:27:02.295Z,76.98
2022-12-16T22:29:22.614Z,76.62
2022-12-16T22:31:43.315Z,76.18
2022-12-16T22:34:07.961Z,76.40
2022-12-16T22:36:32.079Z,76.67
2022-12-16T22:38:56.393Z,76.08
2022-12-16T22:41:18.041Z,76.44
2022-12-16T22:43:45.736Z,76.36
2022-12-16T22:46:07.189Z,76.33
2022-12-16T22:48:30.079Z,76.52
2022-12-16T22:50:51.313Z,76.17
2022-12-16T22:53:12.418Z,76.36
2022-12-16T22:55:32.993Z,76.31
2022-12-16T22:57:53.527Z,76.50
2022-12-16T23:00:14.171Z,76.33
2022-12-16T23:02:34.769Z,76.39
2022-12-16T23:04:55.517Z,76.45
2022-12-16T23:07:17.479Z,76.36
2022-12-16T23:09:38.018Z,76.70
2022-12-16T23:11:59.876Z,76.03
2022-12-16T23:14:20.232Z,76.44
2022-12-16T23:16:40.910Z,76.30
2022-12-16T23:19:02.217Z,76.39
2022-12-16T23:21:22.871Z,76.17
2022-12-16T23:23:43.431Z,76.40
2022-12-16T23:26:17.650Z,76.24
2022-12-16T23:28:38.154Z,76.20
2022-12-16T23:30:58.545Z,76.21
2022-12-16T23:33:20.210Z,75.87
2022-12-16T23:35:40.814Z,76.38
2022-12-16T23:38:01.368Z,76.38
2022-12-16T23:40:22.694Z,76.53
2022-12-16T23:42:43.085Z,76.16
2022-12-16T23:45:03.739Z,76.80
2022-12-16T23:47:24.392Z,76.46
2022-12-16T23:49:44.896Z,77.04
2022-12-16T23:52:05.271Z,77.10
2022-12-16T23:54:25.605Z,77.22
2022-12-16T23:56:47.294Z,76.66
2022-12-16T23:59:08.914Z,77.11
